Terminal Aerodrome Forecast
Issued by NWS Wilmington, OH

Current Version | Previous Version | Graphics & Text | Print | Product List | Glossary On
Versions: 1 2 3 4 5 6 7 8 9 10 11 12 13 14 15 16 17 18 19 20 21 22 23 24 25 26 27 28 29 30 31 32 33 34 35 36 37 38 39
000
FTUS41 KILN 262057 AAA
TAFCVG
TAF AMD
KCVG 262057Z 2621/2724 24012KT P6SM VCTS BKN050CB
      TEMPO 2621/2701 3SM TSRA OVC025CB
     FM270100 18005KT P6SM VCSH SCT035 BKN100
     FM270500 06007KT P6SM OVC018
     FM271500 09007KT P6SM OVC022
     FM272000 12006KT P6SM VCSH BKN035=

USA.gov is the U.S. government's official web portal to all federal, state and local government web resources and services.